Time;durP1;ratioP1;P1;durP2;ratioP2;P2;SDS_P1;SDS_P2;PMS_P1;PMS_P2;Temp;Humidity;BMP_temperature;BMP_pressure;BME280_temperature;BME280_humidity;BME280_pressure;Samples;Min_cycle;Max_cycle;Signal;HPM_P1;HPM_P2
2023/11/27 00:00:02;;;;;;;1.92;1.83;;;;;;;;;;2095389;28;20032;-80
2023/11/27 00:01:21;;;;;;;2.67;1.50;;;;;;;;;;2092641;28;20032;-78
2023/11/27 00:02:40;;;;;;;4.53;1.85;;;;;;;;;;2096035;28;20640;-79
2023/11/27 00:03:59;;;;;;;1.73;1.40;;;;;;;;;;2098233;28;20469;-80
2023/11/27 00:05:19;;;;;;;2.88;1.70;;;;;;;;;;2098810;28;20032;-79
2023/11/27 00:06:37;;;;;;;1.95;1.75;;;;;;;;;;2095696;28;20338;-79
2023/11/27 00:07:56;;;;;;;1.92;1.80;;;;;;;;;;2096707;28;20564;-80
2023/11/27 00:09:15;;;;;;;2.33;1.40;;;;;;;;;;2098540;28;20493;-79
2023/11/27 00:10:34;;;;;;;1.52;1.42;;;;;;;;;;2097742;28;20048;-80
2023/11/27 00:11:53;;;;;;;4.05;2.05;;;;;;;;;;2094266;28;20024;-79
2023/11/27 00:13:12;;;;;;;2.95;1.35;;;;;;;;;;2094065;28;20123;-79
2023/11/27 00:14:31;;;;;;;3.05;1.92;;;;;;;;;;2098926;28;20029;-80
2023/11/27 00:15:50;;;;;;;1.60;1.50;;;;;;;;;;2098145;28;20025;-81
2023/11/27 00:17:09;;;;;;;1.98;1.80;;;;;;;;;;2096906;28;20389;-81
2023/11/27 00:18:28;;;;;;;2.03;1.90;;;;;;;;;;2097645;28;20025;-79
2023/11/27 00:19:47;;;;;;;1.60;1.50;;;;;;;;;;2093382;28;20025;-80
2023/11/27 00:21:06;;;;;;;3.80;1.58;;;;;;;;;;2099217;28;20099;-80
2023/11/27 00:22:25;;;;;;;2.15;1.95;;;;;;;;;;2098408;28;20024;-80
2023/11/27 00:23:44;;;;;;;1.77;1.67;;;;;;;;;;2097274;28;20394;-80
2023/11/27 00:25:03;;;;;;;1.80;1.60;;;;;;;;;;2097398;28;20111;-81
2023/11/27 00:26:22;;;;;;;3.15;1.63;;;;;;;;;;2097085;28;20028;-80
2023/11/27 00:27:42;;;;;;;1.73;1.63;;;;;;;;;;2102530;28;20035;-81
2023/11/27 00:29:01;;;;;;;1.98;1.83;;;;;;;;;;2098557;28;20024;-78
2023/11/27 00:30:20;;;;;;;2.78;1.90;;;;;;;;;;2097715;28;20162;-81
2023/11/27 00:31:39;;;;;;;2.50;1.85;;;;;;;;;;2098751;28;20028;-80
2023/11/27 00:32:58;;;;;;;4.35;2.05;;;;;;;;;;2097525;28;20036;-81
2023/11/27 00:34:17;;;;;;;2.25;1.92;;;;;;;;;;2097459;28;20032;-81
2023/11/27 00:35:36;;;;;;;1.92;1.80;;;;;;;;;;2096685;28;20021;-79
2023/11/27 00:36:55;;;;;;;1.95;1.75;;;;;;;;;;2098575;28;20033;-80
2023/11/27 00:38:14;;;;;;;2.17;1.52;;;;;;;;;;2098759;28;20413;-80
2023/11/27 00:39:34;;;;;;;1.75;1.50;;;;;;;;;;2099494;28;20021;-81
2023/11/27 00:40:52;;;;;;;2.92;1.70;;;;;;;;;;2096215;28;20020;-81
2023/11/27 00:42:11;;;;;;;1.77;1.67;;;;;;;;;;2096424;28;20028;-81
2023/11/27 00:43:30;;;;;;;1.63;1.48;;;;;;;;;;2098037;28;20477;-80
2023/11/27 00:44:49;;;;;;;3.65;2.00;;;;;;;;;;2098153;28;20028;-79
2023/11/27 00:46:08;;;;;;;1.88;1.75;;;;;;;;;;2096213;28;20072;-80
2023/11/27 00:47:27;;;;;;;1.67;1.58;;;;;;;;;;2098346;28;20032;-80
2023/11/27 00:48:47;;;;;;;1.73;1.60;;;;;;;;;;2096638;28;20045;-80
2023/11/27 00:50:06;;;;;;;2.10;1.67;;;;;;;;;;2097277;28;20024;-80
2023/11/27 00:51:25;;;;;;;2.85;2.00;;;;;;;;;;2098387;28;20033;-80
2023/11/27 00:52:44;;;;;;;2.50;2.00;;;;;;;;;;2096443;28;20029;-80
2023/11/27 00:54:03;;;;;;;2.85;1.80;;;;;;;;;;2096352;28;20033;-80
2023/11/27 00:55:22;;;;;;;1.98;1.55;;;;;;;;;;2098728;28;20195;-81
2023/11/27 00:56:42;;;;;;;2.88;1.95;;;;;;;;;;2097188;28;20501;-80
2023/11/27 00:58:01;;;;;;;1.58;1.48;;;;;;;;;;2096129;28;20021;-80
2023/11/27 00:59:19;;;;;;;2.88;1.63;;;;;;;;;;2091451;28;20139;-81
2023/11/27 01:00:38;;;;;;;2.55;1.77;;;;;;;;;;2097543;28;20037;-79
2023/11/27 01:01:57;;;;;;;2.30;1.88;;;;;;;;;;2098163;28;20037;-80
2023/11/27 01:03:16;;;;;;;2.85;1.60;;;;;;;;;;2098458;28;20025;-81
2023/11/27 01:04:38;;;;;;;1.85;1.75;;;;;;;;;;2096262;28;20036;-80
2023/11/27 01:05:58;;;;;;;2.08;1.48;;;;;;;;;;2097882;28;20029;-80
2023/11/27 01:07:17;;;;;;;2.65;1.83;;;;;;;;;;2097290;28;20053;-80
2023/11/27 01:08:36;;;;;;;2.67;1.85;;;;;;;;;;2096713;28;20064;-82
2023/11/27 01:09:55;;;;;;;2.33;2.13;;;;;;;;;;2096240;28;20029;-80
2023/11/27 01:11:14;;;;;;;3.38;1.88;;;;;;;;;;2097897;28;20029;-80
2023/11/27 01:12:34;;;;;;;2.55;2.05;;;;;;;;;;2105853;28;20036;-80
2023/11/27 01:13:55;;;;;;;2.40;2.20;;;;;;;;;;2102590;28;20029;-80
2023/11/27 01:15:14;;;;;;;4.10;2.00;;;;;;;;;;2094787;28;20496;-80
2023/11/27 01:16:33;;;;;;;3.17;2.20;;;;;;;;;;2098249;28;20021;-79
2023/11/27 01:17:52;;;;;;;2.30;2.10;;;;;;;;;;2096177;28;20029;-78
2023/11/27 01:19:11;;;;;;;2.70;2.08;;;;;;;;;;2098499;28;20028;-80
2023/11/27 01:20:30;;;;;;;6.03;2.20;;;;;;;;;;2097312;28;20552;-79
2023/11/27 01:21:49;;;;;;;2.30;1.80;;;;;;;;;;2093947;28;20036;-79
2023/11/27 01:23:08;;;;;;;3.50;2.00;;;;;;;;;;2092817;28;20094;-80
2023/11/27 01:24:28;;;;;;;2.15;2.03;;;;;;;;;;2097306;28;20378;-80
2023/11/27 01:25:47;;;;;;;3.90;1.98;;;;;;;;;;2096297;28;20032;-80
2023/11/27 01:27:06;;;;;;;2.55;1.92;;;;;;;;;;2096379;28;20103;-80
2023/11/27 01:28:25;;;;;;;2.28;2.08;;;;;;;;;;2098193;28;20478;-80
2023/11/27 01:29:44;;;;;;;2.03;1.92;;;;;;;;;;2097453;28;20029;-80
2023/11/27 01:31:06;;;;;;;3.58;2.03;;;;;;;;;;2098177;28;20024;-80
2023/11/27 01:32:26;;;;;;;3.75;2.28;;;;;;;;;;2098322;28;20394;-79
2023/11/27 01:33:44;;;;;;;2.05;1.95;;;;;;;;;;2096914;28;20597;-80
2023/11/27 01:35:03;;;;;;;2.25;2.05;;;;;;;;;;2098081;28;20121;-80
2023/11/27 01:36:22;;;;;;;3.40;2.42;;;;;;;;;;2105478;28;20043;-79
2023/11/27 01:37:41;;;;;;;2.53;2.03;;;;;;;;;;2099436;28;20028;-79
2023/11/27 01:39:00;;;;;;;2.50;2.30;;;;;;;;;;2098495;28;20025;-79
2023/11/27 01:40:19;;;;;;;3.47;1.90;;;;;;;;;;2097798;28;20016;-79
2023/11/27 01:41:38;;;;;;;3.50;2.42;;;;;;;;;;2096481;28;20052;-79
2023/11/27 01:43:00;;;;;;;2.45;2.17;;;;;;;;;;2096139;28;20032;-80
2023/11/27 01:44:19;;;;;;;2.20;1.70;;;;;;;;;;2093983;28;20029;-80
2023/11/27 01:45:38;;;;;;;2.45;2.20;;;;;;;;;;2095896;28;20406;-80
2023/11/27 01:46:58;;;;;;;3.17;2.30;;;;;;;;;;2098323;28;20025;-82
2023/11/27 01:48:17;;;;;;;2.88;2.30;;;;;;;;;;2098854;28;20029;-82
2023/11/27 01:49:37;;;;;;;2.60;2.08;;;;;;;;;;2098030;28;20133;-82
2023/11/27 01:50:56;;;;;;;2.42;2.22;;;;;;;;;;2093518;28;20501;-82
2023/11/27 01:52:16;;;;;;;3.22;2.33;;;;;;;;;;2095737;28;20045;-81
2023/11/27 01:53:38;;;;;;;2.40;2.20;;;;;;;;;;2092293;28;20518;-81
2023/11/27 01:54:57;;;;;;;5.40;2.42;;;;;;;;;;2097207;28;20036;-81
2023/11/27 01:56:19;;;;;;;2.17;1.98;;;;;;;;;;2098636;28;20036;-81
2023/11/27 01:57:38;;;;;;;2.97;2.55;;;;;;;;;;2096491;28;20029;-80
2023/11/27 01:58:58;;;;;;;2.65;2.20;;;;;;;;;;2097331;28;20024;-81
2023/11/27 02:00:18;;;;;;;2.58;2.35;;;;;;;;;;2096394;28;20017;-81
2023/11/27 02:01:37;;;;;;;7.15;2.97;;;;;;;;;;2093012;28;20089;-81
2023/11/27 02:02:56;;;;;;;2.50;2.17;;;;;;;;;;2097764;28;20025;-81
2023/11/27 02:04:15;;;;;;;3.90;2.53;;;;;;;;;;2094779;28;20029;-80
2023/11/27 02:05:34;;;;;;;2.60;2.33;;;;;;;;;;2096979;28;20024;-81
2023/11/27 02:06:53;;;;;;;3.63;2.90;;;;;;;;;;2096781;28;20025;-81
2023/11/27 02:08:12;;;;;;;2.45;2.25;;;;;;;;;;2097279;28;20024;-82
2023/11/27 02:09:31;;;;;;;3.03;2.55;;;;;;;;;;2093321;28;20037;-81
2023/11/27 02:10:52;;;;;;;3.25;2.70;;;;;;;;;;2096922;28;20021;-80
2023/11/27 02:12:11;;;;;;;2.70;2.50;;;;;;;;;;2096214;28;20020;-80
2023/11/27 02:13:30;;;;;;;5.80;2.70;;;;;;;;;;2094411;28;20992;-81
2023/11/27 02:14:50;;;;;;;4.70;2.30;;;;;;;;;;2097909;28;20528;-81
2023/11/27 02:16:09;;;;;;;2.78;2.55;;;;;;;;;;2096232;28;20350;-80
2023/11/27 02:17:28;;;;;;;2.95;2.63;;;;;;;;;;2093378;28;20044;-81
2023/11/27 02:18:47;;;;;;;3.25;2.83;;;;;;;;;;2095292;28;20025;-80
2023/11/27 02:20:06;;;;;;;2.95;2.75;;;;;;;;;;2097745;28;20028;-80
2023/11/27 02:21:25;;;;;;;5.93;2.85;;;;;;;;;;2098418;28;20038;-80
2023/11/27 02:22:45;;;;;;;3.50;3.20;;;;;;;;;;2105521;28;20020;-80
2023/11/27 02:24:04;;;;;;;2.60;2.40;;;;;;;;;;2096383;28;20013;-81
2023/11/27 02:25:23;;;;;;;3.55;2.80;;;;;;;;;;2096604;28;20029;-81
2023/11/27 02:26:42;;;;;;;3.00;2.80;;;;;;;;;;2095483;28;20037;-80
2023/11/27 02:28:01;;;;;;;3.78;2.90;;;;;;;;;;2094174;28;20056;-77
2023/11/27 02:29:21;;;;;;;3.22;2.92;;;;;;;;;;2097442;28;20028;-80
2023/11/27 02:30:40;;;;;;;3.75;3.03;;;;;;;;;;2094757;28;20501;-81
2023/11/27 02:32:00;;;;;;;6.20;3.30;;;;;;;;;;2094324;28;20029;-79
2023/11/27 02:33:21;;;;;;;2.97;2.78;;;;;;;;;;2101283;28;20024;-81
2023/11/27 02:34:45;;;;;;;5.30;3.33;;;;;;;;;;2096708;28;20020;-79
2023/11/27 02:36:04;;;;;;;2.72;2.53;;;;;;;;;;2095072;28;20020;-79
2023/11/27 02:37:23;;;;;;;3.63;2.80;;;;;;;;;;2095961;28;20115;-79
2023/11/27 02:38:42;;;;;;;4.45;3.05;;;;;;;;;;2096815;28;20103;-77
2023/11/27 02:40:02;;;;;;;3.70;3.40;;;;;;;;;;2097708;28;20028;-78
2023/11/27 02:41:21;;;;;;;3.03;2.83;;;;;;;;;;2098209;28;20024;-79
2023/11/27 02:42:40;;;;;;;2.95;2.75;;;;;;;;;;2095300;28;20020;-78
2023/11/27 02:43:59;;;;;;;3.60;3.03;;;;;;;;;;2097635;28;20115;-79
2023/11/27 02:45:18;;;;;;;3.40;3.10;;;;;;;;;;2096283;28;20136;-79
2023/11/27 02:46:37;;;;;;;3.67;3.10;;;;;;;;;;2096624;28;20044;-80
2023/11/27 02:47:56;;;;;;;5.30;3.17;;;;;;;;;;2096808;28;20106;-80
2023/11/27 02:49:15;;;;;;;4.43;3.67;;;;;;;;;;2097527;28;20702;-80
2023/11/27 02:50:34;;;;;;;3.40;3.10;;;;;;;;;;2096416;28;20028;-81
2023/11/27 02:51:53;;;;;;;3.30;3.00;;;;;;;;;;2096367;28;20028;-82
2023/11/27 02:53:12;;;;;;;4.63;3.40;;;;;;;;;;2097505;28;20036;-82
2023/11/27 02:54:31;;;;;;;3.33;3.03;;;;;;;;;;2094904;28;20037;-82
2023/11/27 02:55:50;;;;;;;3.38;3.17;;;;;;;;;;2096636;28;20493;-82
2023/11/27 02:57:09;;;;;;;4.20;3.42;;;;;;;;;;2096804;28;20036;-82
2023/11/27 02:58:29;;;;;;;3.03;2.72;;;;;;;;;;2098072;28;20104;-82
2023/11/27 02:59:48;;;;;;;3.25;3.05;;;;;;;;;;2098097;28;20107;-81
2023/11/27 03:01:08;;;;;;;3.28;2.97;;;;;;;;;;2096445;28;20489;-78
2023/11/27 03:02:27;;;;;;;3.90;3.50;;;;;;;;;;2096654;28;20513;-81
2023/11/27 03:03:46;;;;;;;3.38;3.08;;;;;;;;;;2096532;28;20020;-82
2023/11/27 03:05:08;;;;;;;3.20;2.90;;;;;;;;;;2096119;28;20021;-81
2023/11/27 03:06:27;;;;;;;3.70;3.30;;;;;;;;;;2092316;28;20100;-82
2023/11/27 03:07:46;;;;;;;3.55;3.25;;;;;;;;;;2095800;28;20402;-83
2023/11/27 03:09:05;;;;;;;4.18;3.50;;;;;;;;;;2097310;28;20052;-82
2023/11/27 03:10:23;;;;;;;4.45;3.25;;;;;;;;;;2098536;28;20485;-83
2023/11/27 03:11:42;;;;;;;3.90;3.47;;;;;;;;;;2096603;28;20032;-83
2023/11/27 03:13:01;;;;;;;3.72;3.42;;;;;;;;;;2096257;28;20040;-82
2023/11/27 03:14:20;;;;;;;3.47;3.17;;;;;;;;;;2094948;28;20076;-82
2023/11/27 03:15:40;;;;;;;5.13;3.25;;;;;;;;;;2096949;28;20041;-83
2023/11/27 03:16:59;;;;;;;4.05;3.22;;;;;;;;;;2097853;28;20016;-76
2023/11/27 03:18:18;;;;;;;3.10;2.72;;;;;;;;;;2096935;28;20159;-82
2023/11/27 03:19:38;;;;;;;3.80;3.05;;;;;;;;;;2096396;28;20036;-82
2023/11/27 03:20:57;;;;;;;4.07;2.72;;;;;;;;;;2093472;28;20032;-81
2023/11/27 03:22:16;;;;;;;3.40;3.08;;;;;;;;;;2094463;28;20490;-82
2023/11/27 03:23:35;;;;;;;3.45;3.15;;;;;;;;;;2096852;28;20060;-82
2023/11/27 03:24:54;;;;;;;3.45;3.00;;;;;;;;;;2097349;28;20032;-82
2023/11/27 03:26:13;;;;;;;4.55;3.00;;;;;;;;;;2097164;28;20024;-81
2023/11/27 03:27:32;;;;;;;3.03;2.83;;;;;;;;;;2096248;28;20037;-82
2023/11/27 03:28:51;;;;;;;5.57;3.03;;;;;;;;;;2092401;28;20025;-80
2023/11/27 03:30:10;;;;;;;4.53;3.22;;;;;;;;;;2095699;28;20021;-81
2023/11/27 03:31:29;;;;;;;2.83;2.63;;;;;;;;;;2095844;28;20103;-80
2023/11/27 03:32:50;;;;;;;2.90;2.70;;;;;;;;;;2096385;28;20533;-80
2023/11/27 03:34:09;;;;;;;5.45;2.97;;;;;;;;;;2092735;28;20028;-80
2023/11/27 03:35:28;;;;;;;3.50;3.15;;;;;;;;;;2095010;28;20032;-81
2023/11/27 03:36:47;;;;;;;3.83;2.97;;;;;;;;;;2092751;28;20036;-80
2023/11/27 03:38:06;;;;;;;4.00;3.00;;;;;;;;;;2094202;28;20029;-81
2023/11/27 03:39:25;;;;;;;3.88;3.42;;;;;;;;;;2096831;28;20016;-80
2023/11/27 03:40:44;;;;;;;2.92;2.72;;;;;;;;;;2098024;28;20060;-77
2023/11/27 03:42:03;;;;;;;6.43;2.95;;;;;;;;;;2095877;28;20116;-80
2023/11/27 03:43:22;;;;;;;3.63;3.25;;;;;;;;;;2096195;28;20017;-80
2023/11/27 03:44:41;;;;;;;2.80;2.50;;;;;;;;;;2096906;28;20525;-81
2023/11/27 03:46:01;;;;;;;2.50;2.30;;;;;;;;;;2096733;28;20029;-80
2023/11/27 03:47:20;;;;;;;4.60;3.00;;;;;;;;;;2091909;28;20021;-80
2023/11/27 03:48:40;;;;;;;3.72;3.40;;;;;;;;;;2096029;28;20025;-80
2023/11/27 03:49:59;;;;;;;5.43;2.70;;;;;;;;;;2096622;28;20059;-81
2023/11/27 03:51:18;;;;;;;3.97;2.80;;;;;;;;;;2097167;28;20056;-80
2023/11/27 03:52:37;;;;;;;4.10;2.78;;;;;;;;;;2096613;28;20536;-80
2023/11/27 03:53:56;;;;;;;3.08;2.65;;;;;;;;;;2097659;28;20485;-79
2023/11/27 03:55:15;;;;;;;3.53;2.50;;;;;;;;;;2095228;28;20048;-81
2023/11/27 03:56:34;;;;;;;3.83;2.95;;;;;;;;;;2104634;28;20473;-81
2023/11/27 03:57:54;;;;;;;3.08;2.78;;;;;;;;;;2094906;28;20029;-84
2023/11/27 03:59:12;;;;;;;5.97;3.20;;;;;;;;;;2096854;28;20029;-82
2023/11/27 04:00:32;;;;;;;3.35;2.55;;;;;;;;;;2097519;28;20036;-82
2023/11/27 04:01:51;;;;;;;11.13;3.20;;;;;;;;;;2097504;28;20024;-82
2023/11/27 04:03:09;;;;;;;2.92;2.65;;;;;;;;;;2093968;28;20044;-83
2023/11/27 04:04:28;;;;;;;2.92;2.63;;;;;;;;;;2097626;28;20032;-83
2023/11/27 04:05:47;;;;;;;3.42;2.40;;;;;;;;;;2094603;28;20032;-83
2023/11/27 04:07:06;;;;;;;2.70;2.50;;;;;;;;;;2097250;28;20591;-83
2023/11/27 04:08:26;;;;;;;3.88;2.35;;;;;;;;;;2094781;28;20068;-83
2023/11/27 04:09:45;;;;;;;6.05;2.60;;;;;;;;;;2097211;28;20517;-82
2023/11/27 04:11:05;;;;;;;3.03;2.70;;;;;;;;;;2095860;28;20037;-82
2023/11/27 04:12:24;;;;;;;4.15;2.53;;;;;;;;;;2098749;28;20060;-82
2023/11/27 04:13:44;;;;;;;3.40;2.30;;;;;;;;;;2096619;28;20459;-84
2023/11/27 04:15:04;;;;;;;3.85;2.55;;;;;;;;;;2095582;28;20046;-83
2023/11/27 04:16:23;;;;;;;3.00;2.60;;;;;;;;;;2095008;28;20036;-84
2023/11/27 04:17:43;;;;;;;2.55;2.35;;;;;;;;;;2096989;28;20600;-79
2023/11/27 04:19:02;;;;;;;3.03;2.53;;;;;;;;;;2097319;28;20028;-79
2023/11/27 04:20:21;;;;;;;2.75;2.53;;;;;;;;;;2097136;28;20116;-82
2023/11/27 04:21:40;;;;;;;3.20;2.90;;;;;;;;;;2091520;28;20485;-82
2023/11/27 04:22:59;;;;;;;5.57;2.65;;;;;;;;;;2093185;28;20103;-81
2023/11/27 04:24:18;;;;;;;3.78;2.88;;;;;;;;;;2091361;28;20365;-81
2023/11/27 04:25:37;;;;;;;3.78;2.80;;;;;;;;;;2091999;28;20033;-81
2023/11/27 04:26:55;;;;;;;3.95;2.90;;;;;;;;;;2095068;28;20413;-81
2023/11/27 04:28:14;;;;;;;2.47;2.28;;;;;;;;;;2098255;28;20025;-78
2023/11/27 04:29:33;;;;;;;6.32;2.83;;;;;;;;;;2095327;28;20034;-81
2023/11/27 04:30:52;;;;;;;3.38;2.47;;;;;;;;;;2097068;28;20119;-80
2023/11/27 04:32:11;;;;;;;4.30;2.25;;;;;;;;;;2104255;28;20028;-80
2023/11/27 04:33:30;;;;;;;2.50;2.30;;;;;;;;;;2095055;28;20041;-81
2023/11/27 04:34:49;;;;;;;4.72;2.60;;;;;;;;;;2101737;28;20416;-81
2023/11/27 04:36:09;;;;;;;3.00;2.55;;;;;;;;;;2100953;28;20040;-82
2023/11/27 04:37:28;;;;;;;5.63;2.92;;;;;;;;;;2096588;28;20044;-81
2023/11/27 04:38:48;;;;;;;2.78;2.10;;;;;;;;;;2097326;28;20552;-79
2023/11/27 04:40:10;;;;;;;3.33;2.63;;;;;;;;;;2092719;28;20040;-81
2023/11/27 04:41:29;;;;;;;2.63;2.42;;;;;;;;;;2097073;28;20024;-81
2023/11/27 04:42:48;;;;;;;6.50;2.50;;;;;;;;;;2095250;28;20112;-81
2023/11/27 04:44:07;;;;;;;3.85;2.30;;;;;;;;;;2092220;28;20056;-81
2023/11/27 04:45:26;;;;;;;3.45;2.67;;;;;;;;;;2092954;28;20021;-81
2023/11/27 04:46:45;;;;;;;5.00;2.60;;;;;;;;;;2093976;28;20029;-81
2023/11/27 04:48:04;;;;;;;6.43;2.70;;;;;;;;;;2092791;28;20068;-81
2023/11/27 04:49:23;;;;;;;2.72;2.53;;;;;;;;;;2096723;28;20036;-81
2023/11/27 04:50:43;;;;;;;4.07;2.92;;;;;;;;;;2096896;28;20041;-80
2023/11/27 04:52:03;;;;;;;2.35;2.25;;;;;;;;;;2097350;28;20028;-82
2023/11/27 04:53:22;;;;;;;3.22;2.65;;;;;;;;;;2097722;28;20021;-81
2023/11/27 04:54:41;;;;;;;3.15;2.25;;;;;;;;;;2097774;28;20028;-81
2023/11/27 04:56:01;;;;;;;2.38;2.17;;;;;;;;;;2098840;28;20028;-81
2023/11/27 04:57:21;;;;;;;2.40;2.10;;;;;;;;;;2099266;28;20033;-80
2023/11/27 04:58:41;;;;;;;1.85;1.75;;;;;;;;;;2098910;28;20498;-81
2023/11/27 05:00:00;;;;;;;4.07;2.58;;;;;;;;;;2096970;28;20028;-81
2023/11/27 05:01:19;;;;;;;5.45;2.22;;;;;;;;;;2095896;28;20021;-81
2023/11/27 05:02:38;;;;;;;4.53;2.38;;;;;;;;;;2098360;28;20028;-80
2023/11/27 05:03:57;;;;;;;5.35;2.22;;;;;;;;;;2098808;28;20028;-81
2023/11/27 05:05:16;;;;;;;3.60;2.13;;;;;;;;;;2097123;28;20517;-81
2023/11/27 05:06:35;;;;;;;4.00;3.00;;;;;;;;;;2097317;28;20465;-81
2023/11/27 05:07:54;;;;;;;2.58;2.25;;;;;;;;;;2099199;28;20033;-83
2023/11/27 05:09:16;;;;;;;3.97;2.28;;;;;;;;;;2102592;28;20036;-80
2023/11/27 05:10:39;;;;;;;4.03;2.58;;;;;;;;;;2096986;28;20028;-81
2023/11/27 05:11:58;;;;;;;8.88;2.88;;;;;;;;;;2097549;28;20041;-79
2023/11/27 05:13:17;;;;;;;2.80;2.28;;;;;;;;;;2096535;28;20025;-80
2023/11/27 05:14:35;;;;;;;2.72;2.13;;;;;;;;;;2098324;28;20032;-80
2023/11/27 05:15:54;;;;;;;3.67;2.60;;;;;;;;;;2098275;28;20037;-81
2023/11/27 05:17:13;;;;;;;4.05;2.50;;;;;;;;;;2097417;28;20025;-81
2023/11/27 05:18:32;;;;;;;3.95;2.58;;;;;;;;;;2096802;28;20064;-80
2023/11/27 05:19:51;;;;;;;3.58;3.28;;;;;;;;;;2097112;28;20028;-82
2023/11/27 05:21:11;;;;;;;3.10;2.45;;;;;;;;;;2099463;28;20032;-81
2023/11/27 05:22:31;;;;;;;2.97;2.72;;;;;;;;;;2098973;28;20028;-79
2023/11/27 05:23:50;;;;;;;5.20;2.92;;;;;;;;;;2098272;28;20021;-80
2023/11/27 05:25:09;;;;;;;4.50;3.00;;;;;;;;;;2096244;28;20421;-79
2023/11/27 05:26:28;;;;;;;5.63;3.05;;;;;;;;;;2097271;28;20037;-80
2023/11/27 05:27:47;;;;;;;4.82;3.10;;;;;;;;;;2094095;28;20020;-79
2023/11/27 05:29:06;;;;;;;2.55;2.35;;;;;;;;;;2098780;28;20029;-79
2023/11/27 05:30:25;;;;;;;6.38;2.83;;;;;;;;;;2098114;28;20048;-79
2023/11/27 05:31:44;;;;;;;3.38;2.78;;;;;;;;;;2096571;28;20025;-78
2023/11/27 05:33:03;;;;;;;4.13;2.88;;;;;;;;;;2096601;28;20017;-83
2023/11/27 05:34:22;;;;;;;2.67;2.47;;;;;;;;;;2092772;28;20044;-77
2023/11/27 05:35:41;;;;;;;3.25;2.97;;;;;;;;;;2093760;28;20020;-78
2023/11/27 05:37:00;;;;;;;6.07;2.80;;;;;;;;;;2094263;28;20063;-77
2023/11/27 05:38:20;;;;;;;2.47;2.28;;;;;;;;;;2102986;28;20516;-79
2023/11/27 05:39:41;;;;;;;3.15;2.40;;;;;;;;;;2100408;28;20028;-77
2023/11/27 05:41:01;;;;;;;4.15;2.95;;;;;;;;;;2094236;28;20025;-79
2023/11/27 05:42:20;;;;;;;5.82;2.90;;;;;;;;;;2096226;28;20025;-79
2023/11/27 05:43:39;;;;;;;2.70;2.45;;;;;;;;;;2094547;28;20103;-78
2023/11/27 05:44:59;;;;;;;3.72;2.75;;;;;;;;;;2098004;28;20020;-77
2023/11/27 05:46:18;;;;;;;3.05;2.50;;;;;;;;;;2096219;28;20367;-78
2023/11/27 05:47:38;;;;;;;2.90;2.53;;;;;;;;;;2098248;28;20037;-78
2023/11/27 05:49:00;;;;;;;3.67;2.90;;;;;;;;;;2094378;28;20033;-79
2023/11/27 05:50:22;;;;;;;3.95;2.83;;;;;;;;;;2095477;28;20028;-78
2023/11/27 05:51:41;;;;;;;3.13;2.83;;;;;;;;;;2098161;28;20036;-79
2023/11/27 05:53:00;;;;;;;4.88;2.78;;;;;;;;;;2096380;28;20036;-79
2023/11/27 05:54:19;;;;;;;3.22;2.55;;;;;;;;;;2094967;28;20087;-78
2023/11/27 05:55:39;;;;;;;3.25;2.83;;;;;;;;;;2099513;28;20068;-79
2023/11/27 05:56:58;;;;;;;3.40;2.63;;;;;;;;;;2098719;28;20029;-77
2023/11/27 05:58:18;;;;;;;3.20;3.00;;;;;;;;;;2092516;28;20032;-78
2023/11/27 05:59:37;;;;;;;4.25;3.47;;;;;;;;;;2093603;28;20485;-79
2023/11/27 06:00:57;;;;;;;5.10;2.78;;;;;;;;;;2091892;28;20036;-79
2023/11/27 06:02:15;;;;;;;3.08;2.83;;;;;;;;;;2093283;28;20044;-78
2023/11/27 06:03:36;;;;;;;4.18;3.30;;;;;;;;;;2096567;28;20025;-78
2023/11/27 06:04:55;;;;;;;4.68;2.85;;;;;;;;;;2094926;28;20108;-78
2023/11/27 06:06:14;;;;;;;3.53;2.55;;;;;;;;;;2097766;28;20100;-79
2023/11/27 06:07:34;;;;;;;3.33;2.47;;;;;;;;;;2095990;28;20044;-78
2023/11/27 06:08:53;;;;;;;4.18;2.97;;;;;;;;;;2102351;28;20032;-78
2023/11/27 06:10:12;;;;;;;3.20;2.90;;;;;;;;;;2102001;28;20035;-78
2023/11/27 06:11:31;;;;;;;4.47;3.10;;;;;;;;;;2095600;28;20024;-78
2023/11/27 06:12:50;;;;;;;4.85;2.90;;;;;;;;;;2096758;28;20028;-77
2023/11/27 06:14:09;;;;;;;4.00;3.00;;;;;;;;;;2097714;28;20036;-79
2023/11/27 06:15:28;;;;;;;3.47;3.17;;;;;;;;;;2095523;28;20036;-79
2023/11/27 06:16:47;;;;;;;3.90;2.90;;;;;;;;;;2097461;28;20036;-80
2023/11/27 06:18:06;;;;;;;3.53;3.10;;;;;;;;;;2094009;28;20036;-79
2023/11/27 06:19:25;;;;;;;5.32;3.17;;;;;;;;;;2098266;28;20059;-77
2023/11/27 06:20:44;;;;;;;2.92;2.63;;;;;;;;;;2097452;28;20033;-79
2023/11/27 06:22:03;;;;;;;3.88;2.90;;;;;;;;;;2098489;28;20036;-81
2023/11/27 06:23:22;;;;;;;5.00;2.97;;;;;;;;;;2092642;28;20032;-80
2023/11/27 06:24:40;;;;;;;3.13;2.83;;;;;;;;;;2096035;28;20024;-78
2023/11/27 06:26:01;;;;;;;4.35;2.83;;;;;;;;;;2096581;28;20032;-80
2023/11/27 06:27:20;;;;;;;3.72;3.33;;;;;;;;;;2095703;28;20028;-84
2023/11/27 06:28:40;;;;;;;3.67;2.85;;;;;;;;;;2097010;28;20020;-85
2023/11/27 06:29:59;;;;;;;4.55;3.10;;;;;;;;;;2091577;28;20040;-83
2023/11/27 06:31:18;;;;;;;3.03;2.80;;;;;;;;;;2094004;28;20041;-78
2023/11/27 06:32:37;;;;;;;3.40;3.10;;;;;;;;;;2096715;28;20110;-82
2023/11/27 06:33:56;;;;;;;3.13;2.90;;;;;;;;;;2090307;28;20036;-79
2023/11/27 06:35:15;;;;;;;3.42;3.13;;;;;;;;;;2093800;28;20115;-79
2023/11/27 06:36:34;;;;;;;5.32;2.80;;;;;;;;;;2091069;28;20435;-78
2023/11/27 06:37:53;;;;;;;5.97;3.20;;;;;;;;;;2095349;28;20044;-76
2023/11/27 06:39:12;;;;;;;3.08;2.78;;;;;;;;;;2096309;28;20025;-77
2023/11/27 06:40:30;;;;;;;4.53;2.80;;;;;;;;;;2095496;28;20103;-78
2023/11/27 06:41:50;;;;;;;3.67;2.92;;;;;;;;;;2095534;28;20029;-77
2023/11/27 06:43:10;;;;;;;4.18;3.45;;;;;;;;;;2094725;28;20020;-77
2023/11/27 06:44:29;;;;;;;4.05;3.40;;;;;;;;;;2096187;28;20025;-79
2023/11/27 06:45:49;;;;;;;3.42;3.13;;;;;;;;;;2091791;28;20040;-78
2023/11/27 06:47:07;;;;;;;2.90;2.70;;;;;;;;;;2092621;28;20032;-78
2023/11/27 06:48:26;;;;;;;6.25;3.67;;;;;;;;;;2094578;28;20497;-78
2023/11/27 06:49:45;;;;;;;3.70;3.10;;;;;;;;;;2092017;28;20037;-77
2023/11/27 06:51:04;;;;;;;5.00;3.55;;;;;;;;;;2095976;28;20390;-78
2023/11/27 06:52:23;;;;;;;5.93;2.97;;;;;;;;;;2095971;28;20131;-78
2023/11/27 06:53:42;;;;;;;7.57;3.42;;;;;;;;;;2096201;28;20719;-79
2023/11/27 06:55:01;;;;;;;7.97;3.55;;;;;;;;;;2093557;28;20032;-79
2023/11/27 06:56:20;;;;;;;5.68;3.40;;;;;;;;;;2096803;28;20088;-80
2023/11/27 06:57:39;;;;;;;8.35;3.40;;;;;;;;;;2096137;28;20020;-78
2023/11/27 06:59:03;;;;;;;3.75;2.97;;;;;;;;;;2094830;28;20056;-79
2023/11/27 07:00:22;;;;;;;5.82;3.47;;;;;;;;;;2094938;28;20040;-79
2023/11/27 07:01:41;;;;;;;3.88;3.58;;;;;;;;;;2093781;28;20025;-80
2023/11/27 07:03:00;;;;;;;3.42;2.92;;;;;;;;;;2095439;28;20025;-78
2023/11/27 07:04:19;;;;;;;4.28;3.03;;;;;;;;;;2095002;28;20038;-79
2023/11/27 07:05:38;;;;;;;3.47;3.17;;;;;;;;;;2096939;28;20113;-79
2023/11/27 07:06:57;;;;;;;3.67;3.35;;;;;;;;;;2096818;28;20044;-79
2023/11/27 07:08:17;;;;;;;4.85;2.95;;;;;;;;;;2095662;28;20025;-79
2023/11/27 07:09:36;;;;;;;3.38;3.00;;;;;;;;;;2094594;28;20151;-78
2023/11/27 07:10:55;;;;;;;3.35;3.00;;;;;;;;;;2094692;28;20036;-79
2023/11/27 07:12:15;;;;;;;4.32;3.65;;;;;;;;;;2097411;28;20024;-79
2023/11/27 07:13:34;;;;;;;4.18;3.60;;;;;;;;;;2097416;28;20032;-79
2023/11/27 07:14:53;;;;;;;4.88;3.50;;;;;;;;;;2096125;28;20024;-79
2023/11/27 07:16:13;;;;;;;4.30;3.38;;;;;;;;;;2094366;28;20393;-78
2023/11/27 07:17:32;;;;;;;3.97;3.45;;;;;;;;;;2095754;28;20510;-79
2023/11/27 07:18:51;;;;;;;4.38;3.33;;;;;;;;;;2092765;28;20052;-79
2023/11/27 07:20:17;;;;;;;3.67;3.35;;;;;;;;;;2095537;28;20037;-79
2023/11/27 07:21:36;;;;;;;3.75;3.55;;;;;;;;;;2096783;28;20489;-79
2023/11/27 07:22:55;;;;;;;6.32;3.35;;;;;;;;;;2096897;28;20040;-78
2023/11/27 07:24:14;;;;;;;4.35;3.92;;;;;;;;;;2097162;28;20103;-79
2023/11/27 07:25:32;;;;;;;5.35;3.85;;;;;;;;;;2096395;28;20017;-79
2023/11/27 07:26:51;;;;;;;3.72;3.42;;;;;;;;;;2094575;28;20032;-79
2023/11/27 07:28:11;;;;;;;5.78;4.00;;;;;;;;;;2090866;28;20032;-78
2023/11/27 07:29:30;;;;;;;3.67;3.33;;;;;;;;;;2092466;28;20029;-80
2023/11/27 07:30:49;;;;;;;4.78;3.55;;;;;;;;;;2095192;28;20028;-80
2023/11/27 07:32:08;;;;;;;4.03;3.72;;;;;;;;;;2096790;28;20032;-79
2023/11/27 07:33:27;;;;;;;3.67;3.38;;;;;;;;;;2095815;28;20024;-79
2023/11/27 07:34:46;;;;;;;4.10;3.33;;;;;;;;;;2091367;28;20108;-78
2023/11/27 07:36:06;;;;;;;3.65;3.35;;;;;;;;;;2094719;28;20058;-79
2023/11/27 07:37:25;;;;;;;3.25;2.75;;;;;;;;;;2094863;28;20109;-80
2023/11/27 07:38:48;;;;;;;4.00;3.15;;;;;;;;;;2103064;28;20050;-79
2023/11/27 07:40:14;;;;;;;7.75;3.70;;;;;;;;;;2097591;28;20024;-79
2023/11/27 07:41:34;;;;;;;5.10;3.03;;;;;;;;;;2097126;28;20111;-79
2023/11/27 07:42:54;;;;;;;5.63;2.92;;;;;;;;;;2095420;28;20029;-79
2023/11/27 07:44:15;;;;;;;4.38;3.35;;;;;;;;;;2096036;28;20033;-79
2023/11/27 07:45:34;;;;;;;3.35;3.05;;;;;;;;;;2095111;28;20025;-79
2023/11/27 07:46:53;;;;;;;4.00;3.38;;;;;;;;;;2095773;28;20029;-79
2023/11/27 07:48:13;;;;;;;3.20;2.90;;;;;;;;;;2093749;28;20119;-79
2023/11/27 07:49:32;;;;;;;3.85;3.40;;;;;;;;;;2095866;28;20068;-78
2023/11/27 07:50:51;;;;;;;4.18;3.40;;;;;;;;;;2096565;28;20433;-77
2023/11/27 07:52:11;;;;;;;3.90;2.72;;;;;;;;;;2096551;28;20385;-79
2023/11/27 07:53:30;;;;;;;3.85;3.30;;;;;;;;;;2095161;28;20028;-79
2023/11/27 07:54:49;;;;;;;3.83;3.50;;;;;;;;;;2091310;28;21074;-79